sensor_id;sensor_type;location;lat;lon;timestamp;pressure;altitude;pressure_sealevel;temperature;humidity
13869;BME280;7004;48.206;16.402;2023-02-21T00:00:07;99793.41;;;11.95;48.29
13869;BME280;7004;48.206;16.402;2023-02-21T00:02:56;99783.25;;;12.01;47.88
13869;BME280;7004;48.206;16.402;2023-02-21T00:05:41;99782.81;;;12.08;48.50
13869;BME280;7004;48.206;16.402;2023-02-21T00:08:26;99783.44;;;11.98;49.10
13869;BME280;7004;48.206;16.402;2023-02-21T00:11:11;99782.50;;;11.87;49.31
13869;BME280;7004;48.206;16.402;2023-02-21T00:13:57;99782.06;;;11.93;49.23
13869;BME280;7004;48.206;16.402;2023-02-21T00:16:41;99784.31;;;11.99;49.33
13869;BME280;7004;48.206;16.402;2023-02-21T00:19:26;99784.72;;;11.93;49.33
13869;BME280;7004;48.206;16.402;2023-02-21T00:22:11;99790.91;;;11.79;50.07
13869;BME280;7004;48.206;16.402;2023-02-21T00:24:56;99788.31;;;11.92;49.57
13869;BME280;7004;48.206;16.402;2023-02-21T00:27:42;99785.03;;;12.01;49.79
13869;BME280;7004;48.206;16.402;2023-02-21T00:30:26;99783.72;;;11.81;50.46
13869;BME280;7004;48.206;16.402;2023-02-21T00:33:11;99777.81;;;11.90;50.47
13869;BME280;7004;48.206;16.402;2023-02-21T00:35:56;99776.72;;;11.80;50.84
13869;BME280;7004;48.206;16.402;2023-02-21T00:38:41;99768.50;;;11.97;50.38
13869;BME280;7004;48.206;16.402;2023-02-21T00:41:26;99775.94;;;11.92;50.34
13869;BME280;7004;48.206;16.402;2023-02-21T00:44:11;99774.94;;;11.80;50.96
13869;BME280;7004;48.206;16.402;2023-02-21T00:46:56;99775.38;;;11.87;50.67
13869;BME280;7004;48.206;16.402;2023-02-21T00:49:40;99771.81;;;11.88;51.02
13869;BME280;7004;48.206;16.402;2023-02-21T00:52:26;99774.94;;;11.80;51.13
13869;BME280;7004;48.206;16.402;2023-02-21T00:55:11;99781.13;;;11.94;50.71
13869;BME280;7004;48.206;16.402;2023-02-21T00:57:55;99782.13;;;11.78;51.47
13869;BME280;7004;48.206;16.402;2023-02-21T01:00:40;99779.88;;;11.72;51.91
13869;BME280;7004;48.206;16.402;2023-02-21T01:03:25;99779.50;;;11.78;51.56
13869;BME280;7004;48.206;16.402;2023-02-21T01:06:11;99778.28;;;11.70;52.00
13869;BME280;7004;48.206;16.402;2023-02-21T01:08:56;99781.25;;;11.65;52.17
13869;BME280;7004;48.206;16.402;2023-02-21T01:11:41;99767.16;;;11.65;51.85
13869;BME280;7004;48.206;16.402;2023-02-21T01:14:26;99775.56;;;11.71;51.67
13869;BME280;7004;48.206;16.402;2023-02-21T01:17:11;99765.13;;;11.55;51.76
13869;BME280;7004;48.206;16.402;2023-02-21T01:19:56;99766.66;;;11.59;52.12
13869;BME280;7004;48.206;16.402;2023-02-21T01:22:41;99764.28;;;11.55;52.02
13869;BME280;7004;48.206;16.402;2023-02-21T01:25:26;99765.91;;;11.57;51.60
13869;BME280;7004;48.206;16.402;2023-02-21T01:28:11;99759.97;;;11.67;51.54
13869;BME280;7004;48.206;16.402;2023-02-21T01:30:56;99765.97;;;11.56;52.18
13869;BME280;7004;48.206;16.402;2023-02-21T01:33:42;99765.53;;;11.36;52.80
13869;BME280;7004;48.206;16.402;2023-02-21T01:36:27;99767.34;;;11.49;52.20
13869;BME280;7004;48.206;16.402;2023-02-21T01:39:12;99769.56;;;11.42;52.09
13869;BME280;7004;48.206;16.402;2023-02-21T01:41:57;99777.53;;;11.28;52.90
13869;BME280;7004;48.206;16.402;2023-02-21T01:44:44;99766.78;;;11.44;53.02
13869;BME280;7004;48.206;16.402;2023-02-21T01:47:30;99759.84;;;11.15;53.07
13869;BME280;7004;48.206;16.402;2023-02-21T01:50:37;99759.28;;;11.37;52.36
13869;BME280;7004;48.206;16.402;2023-02-21T01:53:24;99762.41;;;11.30;52.70
13869;BME280;7004;48.206;16.402;2023-02-21T01:56:11;99742.09;;;11.30;52.60
13869;BME280;7004;48.206;16.402;2023-02-21T01:58:59;99748.78;;;11.36;52.62
13869;BME280;7004;48.206;16.402;2023-02-21T02:02:04;99754.59;;;11.41;51.81
13869;BME280;7004;48.206;16.402;2023-02-21T02:04:50;99765.19;;;11.41;51.89
13869;BME280;7004;48.206;16.402;2023-02-21T02:07:36;99757.81;;;11.46;51.89
13869;BME280;7004;48.206;16.402;2023-02-21T02:10:22;99752.94;;;11.40;51.94
13869;BME280;7004;48.206;16.402;2023-02-21T02:25:07;99760.31;;;11.35;51.66
13869;BME280;7004;48.206;16.402;2023-02-21T02:30:56;99763.97;;;11.47;50.88
13869;BME280;7004;48.206;16.402;2023-02-21T02:36:55;99748.44;;;11.28;51.98
13869;BME280;7004;48.206;16.402;2023-02-21T02:44:55;99741.88;;;11.21;51.76
13869;BME280;7004;48.206;16.402;2023-02-21T02:47:29;99737.84;;;11.28;51.93
13869;BME280;7004;48.206;16.402;2023-02-21T02:49:58;99729.16;;;11.26;52.11
13869;BME280;7004;48.206;16.402;2023-02-21T02:52:28;99734.81;;;11.34;52.01
13869;BME280;7004;48.206;16.402;2023-02-21T02:55:19;99725.78;;;11.24;51.91
13869;BME280;7004;48.206;16.402;2023-02-21T02:57:48;99722.13;;;11.12;52.01
13869;BME280;7004;48.206;16.402;2023-02-21T03:00:16;99715.16;;;11.11;52.11
13869;BME280;7004;48.206;16.402;2023-02-21T03:05:58;99703.75;;;11.10;51.43
13869;BME280;7004;48.206;16.402;2023-02-21T03:11:38;99706.28;;;11.12;51.87
13869;BME280;7004;48.206;16.402;2023-02-21T03:14:16;99711.81;;;10.94;52.27
13869;BME280;7004;48.206;16.402;2023-02-21T03:16:50;99705.78;;;10.92;51.88
13869;BME280;7004;48.206;16.402;2023-02-21T03:19:32;99704.41;;;11.00;52.05
13869;BME280;7004;48.206;16.402;2023-02-21T03:24:34;99699.75;;;10.90;51.88
13869;BME280;7004;48.206;16.402;2023-02-21T03:27:05;99715.97;;;10.99;51.96
13869;BME280;7004;48.206;16.402;2023-02-21T03:29:33;99708.31;;;10.94;52.72
13869;BME280;7004;48.206;16.402;2023-02-21T03:32:08;99710.41;;;10.89;52.17
13869;BME280;7004;48.206;16.402;2023-02-21T03:34:40;99705.69;;;10.94;52.57
13869;BME280;7004;48.206;16.402;2023-02-21T03:37:10;99698.66;;;10.80;52.43
13869;BME280;7004;48.206;16.402;2023-02-21T03:39:42;99703.03;;;10.94;51.90
13869;BME280;7004;48.206;16.402;2023-02-21T03:42:09;99694.59;;;10.75;52.18
13869;BME280;7004;48.206;16.402;2023-02-21T03:44:35;99704.91;;;10.79;52.53
13869;BME280;7004;48.206;16.402;2023-02-21T03:47:01;99705.94;;;10.77;52.31
13869;BME280;7004;48.206;16.402;2023-02-21T03:49:27;99705.44;;;10.84;52.36
13869;BME280;7004;48.206;16.402;2023-02-21T03:51:53;99702.75;;;10.71;52.49
13869;BME280;7004;48.206;16.402;2023-02-21T03:54:19;99710.28;;;10.78;52.34
13869;BME280;7004;48.206;16.402;2023-02-21T03:56:45;99716.19;;;10.81;52.00
13869;BME280;7004;48.206;16.402;2023-02-21T03:59:11;99700.25;;;10.83;51.78
13869;BME280;7004;48.206;16.402;2023-02-21T04:01:37;99706.91;;;10.61;52.36
13869;BME280;7004;48.206;16.402;2023-02-21T04:04:03;99713.19;;;10.73;52.05
13869;BME280;7004;48.206;16.402;2023-02-21T04:06:29;99714.31;;;10.83;51.84
13869;BME280;7004;48.206;16.402;2023-02-21T04:08:55;99723.22;;;10.68;52.11
13869;BME280;7004;48.206;16.402;2023-02-21T04:11:22;99711.59;;;10.70;52.31
13869;BME280;7004;48.206;16.402;2023-02-21T04:13:48;99723.03;;;10.71;52.75
13869;BME280;7004;48.206;16.402;2023-02-21T04:16:14;99714.84;;;10.61;52.58
13869;BME280;7004;48.206;16.402;2023-02-21T04:18:40;99711.75;;;10.55;52.84
13869;BME280;7004;48.206;16.402;2023-02-21T04:21:07;99726.63;;;10.56;52.92
13869;BME280;7004;48.206;16.402;2023-02-21T04:23:33;99721.00;;;10.47;53.06
13869;BME280;7004;48.206;16.402;2023-02-21T04:25:59;99723.72;;;10.60;52.87
13869;BME280;7004;48.206;16.402;2023-02-21T04:28:25;99713.25;;;10.59;52.97
13869;BME280;7004;48.206;16.402;2023-02-21T04:30:51;99723.06;;;10.57;52.90
13869;BME280;7004;48.206;16.402;2023-02-21T04:33:17;99720.88;;;10.63;52.71
13869;BME280;7004;48.206;16.402;2023-02-21T04:35:43;99720.16;;;10.47;54.06
13869;BME280;7004;48.206;16.402;2023-02-21T04:38:09;99710.41;;;10.47;53.45
13869;BME280;7004;48.206;16.402;2023-02-21T04:40:35;99716.75;;;10.59;53.24
13869;BME280;7004;48.206;16.402;2023-02-21T04:43:01;99719.50;;;10.43;53.91
13869;BME280;7004;48.206;16.402;2023-02-21T04:45:28;99722.94;;;10.58;53.59
13869;BME280;7004;48.206;16.402;2023-02-21T04:47:54;99721.88;;;10.48;53.82
13869;BME280;7004;48.206;16.402;2023-02-21T04:50:20;99727.16;;;10.48;53.75
13869;BME280;7004;48.206;16.402;2023-02-21T04:52:47;99719.09;;;10.64;53.29
13869;BME280;7004;48.206;16.402;2023-02-21T04:55:14;99731.13;;;10.41;53.61
13869;BME280;7004;48.206;16.402;2023-02-21T04:57:41;99721.25;;;10.57;53.39
13869;BME280;7004;48.206;16.402;2023-02-21T05:00:10;99727.16;;;10.34;54.17
13869;BME280;7004;48.206;16.402;2023-02-21T05:02:44;99733.16;;;10.50;53.98
13869;BME280;7004;48.206;16.402;2023-02-21T05:05:11;99727.59;;;10.26;54.86
13869;BME280;7004;48.206;16.402;2023-02-21T05:07:37;99728.84;;;10.49;54.07
13869;BME280;7004;48.206;16.402;2023-02-21T05:10:06;99729.41;;;10.54;53.90
13869;BME280;7004;48.206;16.402;2023-02-21T05:12:32;99733.66;;;10.42;54.52
13869;BME280;7004;48.206;16.402;2023-02-21T05:14:59;99722.44;;;10.39;54.78
13869;BME280;7004;48.206;16.402;2023-02-21T05:17:25;99732.34;;;10.35;55.09
13869;BME280;7004;48.206;16.402;2023-02-21T05:19:53;99733.84;;;10.39;54.75
13869;BME280;7004;48.206;16.402;2023-02-21T05:22:20;99734.81;;;10.38;54.66
13869;BME280;7004;48.206;16.402;2023-02-21T05:24:46;99725.91;;;10.25;55.15
13869;BME280;7004;48.206;16.402;2023-02-21T05:27:16;99720.16;;;10.18;55.61
13869;BME280;7004;48.206;16.402;2023-02-21T05:29:46;99722.34;;;10.40;55.38
13869;BME280;7004;48.206;16.402;2023-02-21T05:32:13;99717.22;;;10.23;55.38
13869;BME280;7004;48.206;16.402;2023-02-21T05:34:40;99722.06;;;10.31;55.12
13869;BME280;7004;48.206;16.402;2023-02-21T05:37:16;99720.34;;;10.30;55.10
13869;BME280;7004;48.206;16.402;2023-02-21T05:39:47;99713.09;;;10.33;55.16
13869;BME280;7004;48.206;16.402;2023-02-21T05:42:13;99706.66;;;10.23;55.42
13869;BME280;7004;48.206;16.402;2023-02-21T05:44:39;99700.69;;;10.19;55.11
13869;BME280;7004;48.206;16.402;2023-02-21T05:47:05;99707.97;;;10.16;55.14
13869;BME280;7004;48.206;16.402;2023-02-21T05:49:32;99702.97;;;10.25;55.16
13869;BME280;7004;48.206;16.402;2023-02-21T05:51:58;99700.63;;;10.21;55.08
13869;BME280;7004;48.206;16.402;2023-02-21T05:54:25;99706.00;;;10.34;54.99
13869;BME280;7004;48.206;16.402;2023-02-21T05:56:51;99709.41;;;10.36;54.58
13869;BME280;7004;48.206;16.402;2023-02-21T05:59:19;99697.53;;;10.28;54.70
13869;BME280;7004;48.206;16.402;2023-02-21T06:01:47;99702.22;;;10.23;55.16
13869;BME280;7004;48.206;16.402;2023-02-21T06:04:14;99700.06;;;10.16;55.17
13869;BME280;7004;48.206;16.402;2023-02-21T06:06:41;99699.84;;;10.19;55.12
13869;BME280;7004;48.206;16.402;2023-02-21T06:09:08;99709.56;;;10.18;54.98
13869;BME280;7004;48.206;16.402;2023-02-21T06:11:36;99718.47;;;10.17;55.68
13869;BME280;7004;48.206;16.402;2023-02-21T06:14:06;99702.28;;;10.22;55.19
13869;BME280;7004;48.206;16.402;2023-02-21T06:16:36;99711.38;;;10.18;55.34
13869;BME280;7004;48.206;16.402;2023-02-21T06:19:05;99716.84;;;10.15;55.58
13869;BME280;7004;48.206;16.402;2023-02-21T06:21:32;99725.28;;;10.36;54.84
13869;BME280;7004;48.206;16.402;2023-02-21T06:24:00;99727.31;;;10.16;55.69
13869;BME280;7004;48.206;16.402;2023-02-21T06:26:27;99729.09;;;10.16;55.69
13869;BME280;7004;48.206;16.402;2023-02-21T06:28:53;99728.28;;;10.30;55.72
13869;BME280;7004;48.206;16.402;2023-02-21T06:31:20;99738.38;;;10.37;55.23
13869;BME280;7004;48.206;16.402;2023-02-21T06:33:48;99729.03;;;10.17;56.38
13869;BME280;7004;48.206;16.402;2023-02-21T06:36:19;99739.13;;;9.96;56.12
13869;BME280;7004;48.206;16.402;2023-02-21T06:38:50;99737.16;;;10.28;55.71
13869;BME280;7004;48.206;16.402;2023-02-21T06:41:28;99749.66;;;10.11;55.98
13869;BME280;7004;48.206;16.402;2023-02-21T06:43:56;99746.47;;;10.05;56.54
13869;BME280;7004;48.206;16.402;2023-02-21T06:46:27;99750.72;;;10.22;56.45
13869;BME280;7004;48.206;16.402;2023-02-21T06:48:53;99764.09;;;10.05;56.76
13869;BME280;7004;48.206;16.402;2023-02-21T06:51:21;99763.06;;;10.07;56.94
13869;BME280;7004;48.206;16.402;2023-02-21T06:53:55;99760.34;;;10.09;56.71
13869;BME280;7004;48.206;16.402;2023-02-21T06:56:21;99780.13;;;10.16;56.44
13869;BME280;7004;48.206;16.402;2023-02-21T06:58:48;99777.44;;;10.32;55.98
13869;BME280;7004;48.206;16.402;2023-02-21T07:01:14;99784.19;;;10.22;56.17
13869;BME280;7004;48.206;16.402;2023-02-21T07:03:41;99775.81;;;10.15;56.49
13869;BME280;7004;48.206;16.402;2023-02-21T07:06:09;99787.13;;;10.17;56.81
13869;BME280;7004;48.206;16.402;2023-02-21T07:08:36;99788.56;;;10.37;56.03
13869;BME280;7004;48.206;16.402;2023-02-21T07:11:03;99790.00;;;10.28;56.11
13869;BME280;7004;48.206;16.402;2023-02-21T07:13:32;99790.66;;;10.32;56.09
13869;BME280;7004;48.206;16.402;2023-02-21T07:15:58;99797.63;;;10.62;55.70
13869;BME280;7004;48.206;16.402;2023-02-21T07:18:25;99793.13;;;10.35;56.07
13869;BME280;7004;48.206;16.402;2023-02-21T07:20:51;99794.25;;;11.01;54.57
13869;BME280;7004;48.206;16.402;2023-02-21T07:23:17;99797.88;;;11.54;53.86
13869;BME280;7004;48.206;16.402;2023-02-21T07:25:44;99787.19;;;11.29;53.31
13869;BME280;7004;48.206;16.402;2023-02-21T07:28:11;99785.47;;;12.20;51.79
13869;BME280;7004;48.206;16.402;2023-02-21T07:30:37;99784.63;;;12.45;50.62
13869;BME280;7004;48.206;16.402;2023-02-21T07:33:03;99779.72;;;12.52;50.48
13869;BME280;7004;48.206;16.402;2023-02-21T07:35:29;99790.47;;;12.25;50.74
13869;BME280;7004;48.206;16.402;2023-02-21T07:37:56;99782.28;;;12.41;50.22
13869;BME280;7004;48.206;16.402;2023-02-21T07:40:22;99787.25;;;12.71;49.28
13869;BME280;7004;48.206;16.402;2023-02-21T07:42:48;99783.75;;;13.07;48.74
13869;BME280;7004;48.206;16.402;2023-02-21T07:45:15;99782.47;;;13.37;47.98
13869;BME280;7004;48.206;16.402;2023-02-21T07:47:43;99777.25;;;13.36;47.66
13869;BME280;7004;48.206;16.402;2023-02-21T07:50:11;99773.88;;;13.58;47.70
13869;BME280;7004;48.206;16.402;2023-02-21T07:52:38;99771.72;;;14.09;46.61
13869;BME280;7004;48.206;16.402;2023-02-21T07:55:04;99774.81;;;14.03;46.05
13869;BME280;7004;48.206;16.402;2023-02-21T07:57:32;99787.97;;;13.47;48.12
13869;BME280;7004;48.206;16.402;2023-02-21T07:59:58;99767.22;;;13.98;46.71
13869;BME280;7004;48.206;16.402;2023-02-21T08:02:24;99783.09;;;14.34;45.86
13869;BME280;7004;48.206;16.402;2023-02-21T08:04:51;99771.97;;;14.51;45.35
13869;BME280;7004;48.206;16.402;2023-02-21T08:07:17;99789.38;;;14.33;46.23
13869;BME280;7004;48.206;16.402;2023-02-21T08:09:44;99786.38;;;14.82;44.96
13869;BME280;7004;48.206;16.402;2023-02-21T08:12:10;99776.84;;;14.69;45.61
13869;BME280;7004;48.206;16.402;2023-02-21T08:14:36;99789.06;;;13.91;46.39
13869;BME280;7004;48.206;16.402;2023-02-21T08:17:02;99780.19;;;14.71;45.03
13869;BME280;7004;48.206;16.402;2023-02-21T08:19:28;99791.31;;;14.42;45.75
13869;BME280;7004;48.206;16.402;2023-02-21T08:21:54;99784.66;;;14.93;45.00
13869;BME280;7004;48.206;16.402;2023-02-21T08:24:20;99793.81;;;13.98;46.11
13869;BME280;7004;48.206;16.402;2023-02-21T08:26:46;99788.75;;;14.07;46.77
13869;BME280;7004;48.206;16.402;2023-02-21T08:29:14;99781.03;;;14.49;45.54
13869;BME280;7004;48.206;16.402;2023-02-21T08:31:43;99786.22;;;14.16;46.25
13869;BME280;7004;48.206;16.402;2023-02-21T08:34:10;99782.63;;;14.40;45.70
13869;BME280;7004;48.206;16.402;2023-02-21T08:36:41;99768.22;;;15.63;43.27
13869;BME280;7004;48.206;16.402;2023-02-21T08:39:08;99786.25;;;15.39;43.74
13869;BME280;7004;48.206;16.402;2023-02-21T08:44:07;99806.81;;;14.93;44.76
13869;BME280;7004;48.206;16.402;2023-02-21T08:46:34;99796.03;;;14.83;44.18
13869;BME280;7004;48.206;16.402;2023-02-21T08:49:02;99794.94;;;14.30;45.94
13869;BME280;7004;48.206;16.402;2023-02-21T08:51:30;99807.34;;;14.18;45.62
13869;BME280;7004;48.206;16.402;2023-02-21T08:53:58;99815.72;;;14.36;45.25
13869;BME280;7004;48.206;16.402;2023-02-21T08:56:25;99818.50;;;14.34;45.59
13869;BME280;7004;48.206;16.402;2023-02-21T08:58:52;99831.97;;;14.78;44.87
13869;BME280;7004;48.206;16.402;2023-02-21T09:01:21;99825.69;;;14.68;45.42
13869;BME280;7004;48.206;16.402;2023-02-21T10:33:15;99813.63;;;16.67;43.29
13869;BME280;7004;48.206;16.402;2023-02-21T10:35:42;99809.66;;;17.71;40.98
13869;BME280;7004;48.206;16.402;2023-02-21T10:38:16;99828.13;;;15.80;43.66
13869;BME280;7004;48.206;16.402;2023-02-21T10:40:52;99804.94;;;15.92;43.44
13869;BME280;7004;48.206;16.402;2023-02-21T10:43:44;99806.50;;;17.08;42.38
13869;BME280;7004;48.206;16.402;2023-02-21T10:51:46;99792.34;;;17.65;41.02
13869;BME280;7004;48.206;16.402;2023-02-21T10:54:23;99775.16;;;16.69;42.55
13869;BME280;7004;48.206;16.402;2023-02-21T10:56:52;99788.16;;;17.43;41.03
13869;BME280;7004;48.206;16.402;2023-02-21T10:59:25;99783.75;;;15.90;43.77
13869;BME280;7004;48.206;16.402;2023-02-21T11:01:52;99777.88;;;16.48;42.43
13869;BME280;7004;48.206;16.402;2023-02-21T11:07:07;99759.56;;;17.63;40.43
13869;BME280;7004;48.206;16.402;2023-02-21T11:09:42;99759.59;;;18.40;39.63
13869;BME280;7004;48.206;16.402;2023-02-21T11:14:43;99763.44;;;18.27;40.17
13869;BME280;7004;48.206;16.402;2023-02-21T11:17:18;99764.75;;;18.51;39.38
13869;BME280;7004;48.206;16.402;2023-02-21T11:20:17;99759.88;;;19.02;39.05
13869;BME280;7004;48.206;16.402;2023-02-21T11:22:47;99772.63;;;17.28;40.57
13869;BME280;7004;48.206;16.402;2023-02-21T11:33:27;99764.75;;;18.14;40.05
13869;BME280;7004;48.206;16.402;2023-02-21T11:36:16;99761.97;;;16.06;44.08
13869;BME280;7004;48.206;16.402;2023-02-21T11:39:14;99768.28;;;17.17;41.94
13869;BME280;7004;48.206;16.402;2023-02-21T11:41:50;99760.56;;;17.23;42.11
13869;BME280;7004;48.206;16.402;2023-02-21T11:44:41;99765.38;;;16.79;42.68
13869;BME280;7004;48.206;16.402;2023-02-21T11:47:30;99763.75;;;16.67;43.13
13869;BME280;7004;48.206;16.402;2023-02-21T11:50:25;99765.59;;;17.07;43.04
13869;BME280;7004;48.206;16.402;2023-02-21T11:59:24;99770.97;;;17.27;42.73
13869;BME280;7004;48.206;16.402;2023-02-21T12:08:56;99755.84;;;16.96;42.73
13869;BME280;7004;48.206;16.402;2023-02-21T12:20:14;99734.94;;;17.99;42.18
13869;BME280;7004;48.206;16.402;2023-02-21T12:23:31;99742.84;;;16.72;43.96
13869;BME280;7004;48.206;16.402;2023-02-21T12:26:25;99735.03;;;16.80;43.94
13869;BME280;7004;48.206;16.402;2023-02-21T12:32:26;99726.91;;;15.04;47.31
13869;BME280;7004;48.206;16.402;2023-02-21T12:41:03;99712.22;;;15.96;46.17
13869;BME280;7004;48.206;16.402;2023-02-21T12:44:03;99701.69;;;16.75;45.23
13869;BME280;7004;48.206;16.402;2023-02-21T12:47:20;99703.97;;;16.39;45.86
13869;BME280;7004;48.206;16.402;2023-02-21T12:50:02;99701.69;;;16.25;44.90
13869;BME280;7004;48.206;16.402;2023-02-21T12:52:45;99705.25;;;16.85;44.15
13869;BME280;7004;48.206;16.402;2023-02-21T12:55:24;99702.94;;;15.69;46.37
13869;BME280;7004;48.206;16.402;2023-02-21T13:06:28;99691.13;;;16.54;44.95
13869;BME280;7004;48.206;16.402;2023-02-21T13:14:22;99686.13;;;16.30;45.70
13869;BME280;7004;48.206;16.402;2023-02-21T13:16:52;99687.16;;;16.08;45.36
13869;BME280;7004;48.206;16.402;2023-02-21T13:19:19;99674.88;;;16.26;45.23
13869;BME280;7004;48.206;16.402;2023-02-21T13:21:54;99667.00;;;16.75;44.67
13869;BME280;7004;48.206;16.402;2023-02-21T13:24:43;99675.47;;;16.30;45.44
13869;BME280;7004;48.206;16.402;2023-02-21T13:28:19;99669.06;;;16.52;44.84
13869;BME280;7004;48.206;16.402;2023-02-21T13:31:00;99672.31;;;16.15;45.63
13869;BME280;7004;48.206;16.402;2023-02-21T13:33:42;99672.13;;;16.37;44.32
13869;BME280;7004;48.206;16.402;2023-02-21T13:39:20;99675.25;;;16.12;46.18
13869;BME280;7004;48.206;16.402;2023-02-21T13:42:18;99673.69;;;16.50;45.00
13869;BME280;7004;48.206;16.402;2023-02-21T13:44:50;99668.75;;;16.95;44.89
13869;BME280;7004;48.206;16.402;2023-02-21T13:47:20;99672.31;;;16.65;45.19
13869;BME280;7004;48.206;16.402;2023-02-21T13:49:56;99677.38;;;16.58;44.52
13869;BME280;7004;48.206;16.402;2023-02-21T13:52:50;99679.38;;;15.95;46.14
13869;BME280;7004;48.206;16.402;2023-02-21T14:13:55;99664.44;;;15.41;47.47
13869;BME280;7004;48.206;16.402;2023-02-21T14:24:51;99654.25;;;15.88;46.46
13869;BME280;7004;48.206;16.402;2023-02-21T14:32:44;99657.03;;;15.23;48.29
13869;BME280;7004;48.206;16.402;2023-02-21T14:35:35;99647.56;;;15.31;47.87
13869;BME280;7004;48.206;16.402;2023-02-21T14:38:15;99645.13;;;15.27;48.16
13869;BME280;7004;48.206;16.402;2023-02-21T14:44:20;99652.94;;;15.40;48.56
13869;BME280;7004;48.206;16.402;2023-02-21T14:50:23;99654.72;;;14.98;48.95
13869;BME280;7004;48.206;16.402;2023-02-21T15:01:48;99650.03;;;14.90;48.74
13869;BME280;7004;48.206;16.402;2023-02-21T15:13:02;99653.38;;;14.71;49.43
13869;BME280;7004;48.206;16.402;2023-02-21T15:15:38;99646.97;;;14.62;49.88
13869;BME280;7004;48.206;16.402;2023-02-21T15:18:22;99642.50;;;14.52;50.00
13869;BME280;7004;48.206;16.402;2023-02-21T15:23:27;99645.16;;;14.52;50.24
13869;BME280;7004;48.206;16.402;2023-02-21T15:26:07;99633.94;;;14.48;50.83
13869;BME280;7004;48.206;16.402;2023-02-21T15:28:40;99641.91;;;14.37;50.71
13869;BME280;7004;48.206;16.402;2023-02-21T15:31:11;99635.38;;;14.41;50.45
13869;BME280;7004;48.206;16.402;2023-02-21T15:33:41;99637.53;;;14.47;50.45
13869;BME280;7004;48.206;16.402;2023-02-21T15:36:21;99640.34;;;14.57;50.66
13869;BME280;7004;48.206;16.402;2023-02-21T15:39:01;99647.84;;;14.40;51.27
13869;BME280;7004;48.206;16.402;2023-02-21T15:41:41;99636.69;;;14.47;50.66
13869;BME280;7004;48.206;16.402;2023-02-21T15:44:31;99647.50;;;14.23;51.28
13869;BME280;7004;48.206;16.402;2023-02-21T15:47:07;99637.84;;;13.99;52.17
13869;BME280;7004;48.206;16.402;2023-02-21T15:49:41;99643.16;;;14.10;51.95
13869;BME280;7004;48.206;16.402;2023-02-21T15:52:41;99637.97;;;13.97;52.58
13869;BME280;7004;48.206;16.402;2023-02-21T15:55:29;99644.25;;;13.96;52.22
13869;BME280;7004;48.206;16.402;2023-02-21T16:01:05;99642.91;;;14.13;52.22
13869;BME280;7004;48.206;16.402;2023-02-21T16:06:24;99645.44;;;13.92;53.20
13869;BME280;7004;48.206;16.402;2023-02-21T16:09:07;99651.25;;;13.75;53.60
13869;BME280;7004;48.206;16.402;2023-02-21T16:12:22;99657.41;;;13.87;53.37
13869;BME280;7004;48.206;16.402;2023-02-21T16:17:44;99662.50;;;14.01;53.25
13869;BME280;7004;48.206;16.402;2023-02-21T16:22:50;99671.03;;;13.82;53.94
13869;BME280;7004;48.206;16.402;2023-02-21T16:25:22;99659.81;;;13.79;53.91
13869;BME280;7004;48.206;16.402;2023-02-21T16:27:56;99667.19;;;13.86;53.83
13869;BME280;7004;48.206;16.402;2023-02-21T16:30:26;99659.19;;;13.64;54.50
13869;BME280;7004;48.206;16.402;2023-02-21T16:33:02;99666.34;;;13.86;54.60
13869;BME280;7004;48.206;16.402;2023-02-21T16:35:30;99667.66;;;13.69;55.01
13869;BME280;7004;48.206;16.402;2023-02-21T16:37:59;99668.88;;;13.76;54.44
13869;BME280;7004;48.206;16.402;2023-02-21T16:40:32;99667.53;;;13.82;54.45
13869;BME280;7004;48.206;16.402;2023-02-21T16:43:01;99666.41;;;13.62;54.92
13869;BME280;7004;48.206;16.402;2023-02-21T16:45:29;99677.41;;;13.57;55.73
13869;BME280;7004;48.206;16.402;2023-02-21T16:48:04;99682.25;;;13.63;55.23
13869;BME280;7004;48.206;16.402;2023-02-21T16:50:36;99699.84;;;13.53;56.43
13869;BME280;7004;48.206;16.402;2023-02-21T16:53:03;99690.56;;;13.59;55.86
13869;BME280;7004;48.206;16.402;2023-02-21T16:55:30;99696.13;;;13.55;56.25
13869;BME280;7004;48.206;16.402;2023-02-21T16:58:04;99704.28;;;13.17;58.37
13869;BME280;7004;48.206;16.402;2023-02-21T17:00:32;99705.41;;;13.26;58.33
13869;BME280;7004;48.206;16.402;2023-02-21T17:02:59;99709.56;;;13.30;58.43
13869;BME280;7004;48.206;16.402;2023-02-21T17:05:25;99715.28;;;13.24;58.64
13869;BME280;7004;48.206;16.402;2023-02-21T17:07:54;99716.03;;;13.02;59.22
13869;BME280;7004;48.206;16.402;2023-02-21T17:10:21;99716.66;;;13.29;58.56
13869;BME280;7004;48.206;16.402;2023-02-21T17:12:47;99714.09;;;13.04;59.89
13869;BME280;7004;48.206;16.402;2023-02-21T17:22:24;99730.53;;;12.85;60.57
13869;BME280;7004;48.206;16.402;2023-02-21T17:24:50;99736.16;;;12.80;60.95
13869;BME280;7004;48.206;16.402;2023-02-21T17:27:18;99729.53;;;12.62;61.41
13869;BME280;7004;48.206;16.402;2023-02-21T17:29:47;99733.84;;;12.76;61.44
13869;BME280;7004;48.206;16.402;2023-02-21T17:32:13;99739.94;;;12.89;60.96
13869;BME280;7004;48.206;16.402;2023-02-21T17:34:41;99739.88;;;12.78;61.04
13869;BME280;7004;48.206;16.402;2023-02-21T17:37:07;99743.06;;;12.83;61.31
13869;BME280;7004;48.206;16.402;2023-02-21T17:39:35;99749.47;;;12.67;61.96
13869;BME280;7004;48.206;16.402;2023-02-21T17:42:02;99750.38;;;12.92;60.67
13869;BME280;7004;48.206;16.402;2023-02-21T17:44:29;99745.53;;;12.73;61.46
13869;BME280;7004;48.206;16.402;2023-02-21T17:46:56;99749.50;;;12.42;62.83
13869;BME280;7004;48.206;16.402;2023-02-21T17:49:26;99755.09;;;12.63;62.26
13869;BME280;7004;48.206;16.402;2023-02-21T17:51:54;99742.16;;;12.71;61.75
13869;BME280;7004;48.206;16.402;2023-02-21T17:54:23;99748.03;;;12.51;62.89
13869;BME280;7004;48.206;16.402;2023-02-21T17:56:51;99756.63;;;12.41;63.48
13869;BME280;7004;48.206;16.402;2023-02-21T17:59:18;99754.28;;;12.50;63.04
13869;BME280;7004;48.206;16.402;2023-02-21T18:01:44;99760.53;;;12.49;63.09
13869;BME280;7004;48.206;16.402;2023-02-21T18:04:11;99758.28;;;12.55;63.41